sensor_id;sensor_type;location;lat;lon;timestamp;P1;durP1;ratioP1;P2;durP2;ratioP2
11671;SDS011;5892;43.412;24.612;2024-02-26T00:00:35;15.10;;;6.57;;
11671;SDS011;5892;43.412;24.612;2024-02-26T00:03:01;11.82;;;7.03;;
11671;SDS011;5892;43.412;24.612;2024-02-26T00:05:26;13.25;;;6.32;;
11671;SDS011;5892;43.412;24.612;2024-02-26T00:07:52;14.38;;;7.40;;
11671;SDS011;5892;43.412;24.612;2024-02-26T00:10:19;14.63;;;7.22;;
11671;SDS011;5892;43.412;24.612;2024-02-26T00:12:44;14.20;;;7.15;;
11671;SDS011;5892;43.412;24.612;2024-02-26T00:15:10;14.85;;;7.68;;
11671;SDS011;5892;43.412;24.612;2024-02-26T00:17:36;18.20;;;8.70;;
11671;SDS011;5892;43.412;24.612;2024-02-26T00:20:02;20.98;;;9.85;;
11671;SDS011;5892;43.412;24.612;2024-02-26T00:22:29;19.42;;;9.68;;
11671;SDS011;5892;43.412;24.612;2024-02-26T00:24:55;17.52;;;9.80;;
11671;SDS011;5892;43.412;24.612;2024-02-26T00:27:21;20.95;;;11.23;;
11671;SDS011;5892;43.412;24.612;2024-02-26T00:29:46;19.73;;;10.05;;
11671;SDS011;5892;43.412;24.612;2024-02-26T00:32:12;22.02;;;10.25;;
11671;SDS011;5892;43.412;24.612;2024-02-26T00:34:38;17.45;;;10.25;;
11671;SDS011;5892;43.412;24.612;2024-02-26T00:37:04;19.08;;;11.02;;
11671;SDS011;5892;43.412;24.612;2024-02-26T00:39:30;19.42;;;10.35;;
11671;SDS011;5892;43.412;24.612;2024-02-26T00:41:56;19.63;;;10.43;;
11671;SDS011;5892;43.412;24.612;2024-02-26T00:44:22;15.93;;;9.00;;
11671;SDS011;5892;43.412;24.612;2024-02-26T00:46:48;17.17;;;9.52;;
11671;SDS011;5892;43.412;24.612;2024-02-26T00:49:14;20.38;;;9.70;;
11671;SDS011;5892;43.412;24.612;2024-02-26T00:51:39;17.98;;;9.52;;
11671;SDS011;5892;43.412;24.612;2024-02-26T00:54:04;16.90;;;9.23;;
11671;SDS011;5892;43.412;24.612;2024-02-26T00:56:30;13.50;;;8.40;;
11671;SDS011;5892;43.412;24.612;2024-02-26T00:58:55;17.83;;;9.02;;
11671;SDS011;5892;43.412;24.612;2024-02-26T01:01:22;15.43;;;8.57;;
11671;SDS011;5892;43.412;24.612;2024-02-26T01:03:47;20.70;;;9.57;;
11671;SDS011;5892;43.412;24.612;2024-02-26T01:06:13;17.08;;;8.68;;
11671;SDS011;5892;43.412;24.612;2024-02-26T01:08:39;19.65;;;8.60;;
11671;SDS011;5892;43.412;24.612;2024-02-26T01:11:05;14.80;;;7.82;;
11671;SDS011;5892;43.412;24.612;2024-02-26T01:13:31;16.88;;;8.02;;
11671;SDS011;5892;43.412;24.612;2024-02-26T01:15:56;17.67;;;9.02;;
11671;SDS011;5892;43.412;24.612;2024-02-26T01:18:25;14.88;;;8.40;;
11671;SDS011;5892;43.412;24.612;2024-02-26T01:20:51;15.13;;;8.25;;
11671;SDS011;5892;43.412;24.612;2024-02-26T01:23:19;14.30;;;8.57;;
11671;SDS011;5892;43.412;24.612;2024-02-26T01:25:45;16.40;;;8.15;;
11671;SDS011;5892;43.412;24.612;2024-02-26T01:28:11;18.02;;;8.68;;
11671;SDS011;5892;43.412;24.612;2024-02-26T01:30:37;13.35;;;7.47;;
11671;SDS011;5892;43.412;24.612;2024-02-26T01:33:02;15.50;;;8.57;;
11671;SDS011;5892;43.412;24.612;2024-02-26T01:35:29;14.75;;;8.75;;
11671;SDS011;5892;43.412;24.612;2024-02-26T01:37:55;17.00;;;9.20;;
11671;SDS011;5892;43.412;24.612;2024-02-26T01:40:20;22.52;;;10.63;;
11671;SDS011;5892;43.412;24.612;2024-02-26T01:42:46;18.40;;;8.68;;
11671;SDS011;5892;43.412;24.612;2024-02-26T01:45:16;17.58;;;9.68;;
11671;SDS011;5892;43.412;24.612;2024-02-26T01:47:50;16.15;;;8.25;;
11671;SDS011;5892;43.412;24.612;2024-02-26T01:50:17;15.90;;;7.15;;
11671;SDS011;5892;43.412;24.612;2024-02-26T01:52:44;10.55;;;6.50;;
11671;SDS011;5892;43.412;24.612;2024-02-26T01:55:14;13.77;;;8.43;;
11671;SDS011;5892;43.412;24.612;2024-02-26T01:57:43;13.25;;;7.75;;
11671;SDS011;5892;43.412;24.612;2024-02-26T02:00:12;15.82;;;7.32;;
11671;SDS011;5892;43.412;24.612;2024-02-26T02:02:39;15.77;;;8.48;;
11671;SDS011;5892;43.412;24.612;2024-02-26T02:05:07;17.17;;;9.52;;
11671;SDS011;5892;43.412;24.612;2024-02-26T02:07:34;13.45;;;7.85;;
11671;SDS011;5892;43.412;24.612;2024-02-26T02:10:01;13.27;;;8.27;;
11671;SDS011;5892;43.412;24.612;2024-02-26T02:12:28;14.57;;;9.23;;
11671;SDS011;5892;43.412;24.612;2024-02-26T02:14:57;17.35;;;8.05;;
11671;SDS011;5892;43.412;24.612;2024-02-26T02:17:23;15.95;;;7.32;;
11671;SDS011;5892;43.412;24.612;2024-02-26T02:19:49;12.45;;;7.32;;
11671;SDS011;5892;43.412;24.612;2024-02-26T02:22:14;18.42;;;6.85;;
11671;SDS011;5892;43.412;24.612;2024-02-26T02:24:40;13.68;;;6.78;;
11671;SDS011;5892;43.412;24.612;2024-02-26T02:27:05;11.27;;;6.45;;
11671;SDS011;5892;43.412;24.612;2024-02-26T02:29:31;12.77;;;7.20;;
11671;SDS011;5892;43.412;24.612;2024-02-26T02:31:56;11.10;;;6.57;;
11671;SDS011;5892;43.412;24.612;2024-02-26T02:34:22;12.73;;;6.68;;
11671;SDS011;5892;43.412;24.612;2024-02-26T02:36:49;11.90;;;6.88;;
11671;SDS011;5892;43.412;24.612;2024-02-26T02:39:17;13.48;;;7.30;;
11671;SDS011;5892;43.412;24.612;2024-02-26T02:41:43;12.93;;;6.75;;
11671;SDS011;5892;43.412;24.612;2024-02-26T02:44:09;13.75;;;6.82;;
11671;SDS011;5892;43.412;24.612;2024-02-26T02:46:35;19.08;;;8.52;;
11671;SDS011;5892;43.412;24.612;2024-02-26T02:49:00;15.02;;;7.47;;
11671;SDS011;5892;43.412;24.612;2024-02-26T02:51:26;12.80;;;7.03;;
11671;SDS011;5892;43.412;24.612;2024-02-26T02:53:52;15.63;;;7.68;;
11671;SDS011;5892;43.412;24.612;2024-02-26T02:56:17;13.20;;;7.03;;
11671;SDS011;5892;43.412;24.612;2024-02-26T02:58:43;12.20;;;7.35;;
11671;SDS011;5892;43.412;24.612;2024-02-26T03:01:09;15.07;;;7.22;;
11671;SDS011;5892;43.412;24.612;2024-02-26T03:03:35;14.75;;;7.47;;
11671;SDS011;5892;43.412;24.612;2024-02-26T03:06:02;13.40;;;6.65;;
11671;SDS011;5892;43.412;24.612;2024-02-26T03:08:28;10.48;;;6.03;;
11671;SDS011;5892;43.412;24.612;2024-02-26T03:10:55;13.27;;;6.57;;
11671;SDS011;5892;43.412;24.612;2024-02-26T03:13:24;10.20;;;6.43;;
11671;SDS011;5892;43.412;24.612;2024-02-26T03:15:49;14.60;;;6.70;;
11671;SDS011;5892;43.412;24.612;2024-02-26T03:18:15;10.25;;;6.20;;
11671;SDS011;5892;43.412;24.612;2024-02-26T03:20:40;13.82;;;6.43;;
11671;SDS011;5892;43.412;24.612;2024-02-26T03:23:06;16.55;;;7.57;;
11671;SDS011;5892;43.412;24.612;2024-02-26T03:25:34;17.20;;;7.53;;
11671;SDS011;5892;43.412;24.612;2024-02-26T03:28:01;13.90;;;8.23;;
11671;SDS011;5892;43.412;24.612;2024-02-26T03:30:27;12.65;;;6.97;;
11671;SDS011;5892;43.412;24.612;2024-02-26T03:32:52;16.08;;;7.72;;
11671;SDS011;5892;43.412;24.612;2024-02-26T03:35:18;14.45;;;7.47;;
11671;SDS011;5892;43.412;24.612;2024-02-26T03:37:43;14.45;;;7.68;;
11671;SDS011;5892;43.412;24.612;2024-02-26T03:40:11;15.82;;;8.00;;
11671;SDS011;5892;43.412;24.612;2024-02-26T03:42:39;19.77;;;8.43;;
11671;SDS011;5892;43.412;24.612;2024-02-26T03:45:05;13.20;;;7.57;;
11671;SDS011;5892;43.412;24.612;2024-02-26T03:47:31;17.35;;;8.52;;
11671;SDS011;5892;43.412;24.612;2024-02-26T03:49:57;19.55;;;10.15;;
11671;SDS011;5892;43.412;24.612;2024-02-26T03:52:24;27.00;;;12.77;;
11671;SDS011;5892;43.412;24.612;2024-02-26T03:54:49;29.00;;;14.38;;
11671;SDS011;5892;43.412;24.612;2024-02-26T03:57:15;20.63;;;11.25;;
11671;SDS011;5892;43.412;24.612;2024-02-26T03:59:42;25.23;;;13.20;;
11671;SDS011;5892;43.412;24.612;2024-02-26T04:02:08;24.25;;;12.05;;
11671;SDS011;5892;43.412;24.612;2024-02-26T04:04:34;20.45;;;10.93;;
11671;SDS011;5892;43.412;24.612;2024-02-26T04:07:00;22.02;;;12.15;;
11671;SDS011;5892;43.412;24.612;2024-02-26T04:09:25;23.17;;;13.50;;
11671;SDS011;5892;43.412;24.612;2024-02-26T04:11:51;27.33;;;15.43;;
11671;SDS011;5892;43.412;24.612;2024-02-26T04:14:16;30.73;;;17.10;;
11671;SDS011;5892;43.412;24.612;2024-02-26T04:16:42;40.60;;;20.05;;
11671;SDS011;5892;43.412;24.612;2024-02-26T04:19:07;32.80;;;18.23;;
11671;SDS011;5892;43.412;24.612;2024-02-26T04:21:33;32.05;;;16.73;;
11671;SDS011;5892;43.412;24.612;2024-02-26T04:24:00;25.58;;;13.57;;
11671;SDS011;5892;43.412;24.612;2024-02-26T04:26:27;27.05;;;15.25;;
11671;SDS011;5892;43.412;24.612;2024-02-26T04:28:54;25.23;;;13.57;;
11671;SDS011;5892;43.412;24.612;2024-02-26T04:31:19;24.00;;;12.68;;
11671;SDS011;5892;43.412;24.612;2024-02-26T04:33:45;25.45;;;13.38;;
11671;SDS011;5892;43.412;24.612;2024-02-26T04:36:14;29.92;;;13.63;;
11671;SDS011;5892;43.412;24.612;2024-02-26T04:38:45;26.60;;;12.88;;
11671;SDS011;5892;43.412;24.612;2024-02-26T04:41:11;22.73;;;12.88;;
11671;SDS011;5892;43.412;24.612;2024-02-26T04:43:38;22.70;;;12.13;;
11671;SDS011;5892;43.412;24.612;2024-02-26T04:46:10;23.65;;;11.45;;
11671;SDS011;5892;43.412;24.612;2024-02-26T04:48:36;23.45;;;11.95;;
11671;SDS011;5892;43.412;24.612;2024-02-26T04:51:02;20.80;;;11.93;;
11671;SDS011;5892;43.412;24.612;2024-02-26T04:53:28;20.30;;;11.63;;
11671;SDS011;5892;43.412;24.612;2024-02-26T04:55:54;21.83;;;11.75;;
11671;SDS011;5892;43.412;24.612;2024-02-26T04:58:19;28.02;;;11.90;;
11671;SDS011;5892;43.412;24.612;2024-02-26T05:00:45;24.77;;;12.30;;
11671;SDS011;5892;43.412;24.612;2024-02-26T05:03:11;28.33;;;13.45;;
11671;SDS011;5892;43.412;24.612;2024-02-26T05:05:41;23.05;;;12.35;;
11671;SDS011;5892;43.412;24.612;2024-02-26T05:08:09;29.33;;;14.45;;
11671;SDS011;5892;43.412;24.612;2024-02-26T05:10:35;30.58;;;15.52;;
11671;SDS011;5892;43.412;24.612;2024-02-26T05:13:05;27.67;;;14.40;;
11671;SDS011;5892;43.412;24.612;2024-02-26T05:15:30;26.65;;;14.82;;
11671;SDS011;5892;43.412;24.612;2024-02-26T05:17:57;28.40;;;15.27;;
11671;SDS011;5892;43.412;24.612;2024-02-26T05:20:24;26.13;;;13.50;;
11671;SDS011;5892;43.412;24.612;2024-02-26T05:22:52;26.58;;;15.63;;
11671;SDS011;5892;43.412;24.612;2024-02-26T05:25:18;33.08;;;15.55;;
11671;SDS011;5892;43.412;24.612;2024-02-26T05:27:45;31.75;;;14.90;;
11671;SDS011;5892;43.412;24.612;2024-02-26T05:30:11;27.13;;;14.02;;
11671;SDS011;5892;43.412;24.612;2024-02-26T05:32:38;28.17;;;12.63;;
11671;SDS011;5892;43.412;24.612;2024-02-26T05:35:06;22.63;;;10.27;;
11671;SDS011;5892;43.412;24.612;2024-02-26T05:37:34;26.60;;;10.52;;
11671;SDS011;5892;43.412;24.612;2024-02-26T05:39:59;22.63;;;11.77;;
11671;SDS011;5892;43.412;24.612;2024-02-26T05:42:25;23.20;;;12.18;;
11671;SDS011;5892;43.412;24.612;2024-02-26T05:44:50;20.58;;;12.05;;
11671;SDS011;5892;43.412;24.612;2024-02-26T05:47:16;25.83;;;12.05;;
11671;SDS011;5892;43.412;24.612;2024-02-26T05:49:42;20.08;;;11.95;;
11671;SDS011;5892;43.412;24.612;2024-02-26T05:52:08;20.67;;;11.48;;
11671;SDS011;5892;43.412;24.612;2024-02-26T05:54:33;24.90;;;12.52;;
11671;SDS011;5892;43.412;24.612;2024-02-26T05:56:59;33.55;;;12.15;;
11671;SDS011;5892;43.412;24.612;2024-02-26T05:59:24;25.08;;;13.00;;
11671;SDS011;5892;43.412;24.612;2024-02-26T06:01:50;24.48;;;12.77;;
11671;SDS011;5892;43.412;24.612;2024-02-26T06:04:16;25.25;;;12.65;;
11671;SDS011;5892;43.412;24.612;2024-02-26T06:06:44;30.70;;;13.95;;
11671;SDS011;5892;43.412;24.612;2024-02-26T06:09:10;30.45;;;13.23;;
11671;SDS011;5892;43.412;24.612;2024-02-26T06:11:36;27.92;;;13.20;;
11671;SDS011;5892;43.412;24.612;2024-02-26T06:14:02;21.20;;;12.68;;
11671;SDS011;5892;43.412;24.612;2024-02-26T06:16:27;23.38;;;11.23;;
11671;SDS011;5892;43.412;24.612;2024-02-26T06:18:53;21.23;;;11.90;;
11671;SDS011;5892;43.412;24.612;2024-02-26T06:21:18;28.92;;;13.00;;
11671;SDS011;5892;43.412;24.612;2024-02-26T06:23:44;25.90;;;13.45;;
11671;SDS011;5892;43.412;24.612;2024-02-26T06:26:09;24.63;;;13.43;;
11671;SDS011;5892;43.412;24.612;2024-02-26T06:28:35;23.55;;;13.05;;
11671;SDS011;5892;43.412;24.612;2024-02-26T06:31:01;24.23;;;13.73;;
11671;SDS011;5892;43.412;24.612;2024-02-26T06:33:27;34.72;;;13.18;;
11671;SDS011;5892;43.412;24.612;2024-02-26T06:35:52;27.02;;;13.38;;
11671;SDS011;5892;43.412;24.612;2024-02-26T06:38:17;28.17;;;14.45;;
11671;SDS011;5892;43.412;24.612;2024-02-26T06:40:46;26.13;;;14.50;;
11671;SDS011;5892;43.412;24.612;2024-02-26T06:43:11;28.80;;;15.75;;
11671;SDS011;5892;43.412;24.612;2024-02-26T06:45:37;30.27;;;16.50;;
11671;SDS011;5892;43.412;24.612;2024-02-26T06:48:02;26.63;;;14.32;;
11671;SDS011;5892;43.412;24.612;2024-02-26T06:50:28;29.80;;;15.02;;
11671;SDS011;5892;43.412;24.612;2024-02-26T06:52:53;28.42;;;13.85;;
11671;SDS011;5892;43.412;24.612;2024-02-26T06:55:19;30.58;;;14.30;;
11671;SDS011;5892;43.412;24.612;2024-02-26T06:57:44;34.38;;;15.57;;
11671;SDS011;5892;43.412;24.612;2024-02-26T07:00:10;37.78;;;16.88;;
11671;SDS011;5892;43.412;24.612;2024-02-26T07:02:39;34.50;;;13.43;;
11671;SDS011;5892;43.412;24.612;2024-02-26T07:05:05;35.38;;;16.52;;
11671;SDS011;5892;43.412;24.612;2024-02-26T07:07:31;30.52;;;16.13;;
11671;SDS011;5892;43.412;24.612;2024-02-26T07:09:56;28.63;;;15.85;;
11671;SDS011;5892;43.412;24.612;2024-02-26T07:12:22;31.40;;;15.98;;
11671;SDS011;5892;43.412;24.612;2024-02-26T07:14:48;31.75;;;16.40;;
11671;SDS011;5892;43.412;24.612;2024-02-26T07:17:15;32.33;;;16.92;;
11671;SDS011;5892;43.412;24.612;2024-02-26T07:19:41;32.25;;;16.05;;
11671;SDS011;5892;43.412;24.612;2024-02-26T07:22:07;37.67;;;18.45;;
11671;SDS011;5892;43.412;24.612;2024-02-26T07:24:32;58.35;;;21.50;;
11671;SDS011;5892;43.412;24.612;2024-02-26T07:26:58;42.95;;;21.25;;
11671;SDS011;5892;43.412;24.612;2024-02-26T07:29:24;38.10;;;20.05;;
11671;SDS011;5892;43.412;24.612;2024-02-26T07:31:50;33.95;;;19.13;;
11671;SDS011;5892;43.412;24.612;2024-02-26T07:34:16;38.50;;;19.95;;
11671;SDS011;5892;43.412;24.612;2024-02-26T07:36:42;44.15;;;21.92;;
11671;SDS011;5892;43.412;24.612;2024-02-26T07:39:07;36.25;;;20.02;;
11671;SDS011;5892;43.412;24.612;2024-02-26T07:41:33;40.03;;;18.90;;
11671;SDS011;5892;43.412;24.612;2024-02-26T07:43:58;36.10;;;20.33;;
11671;SDS011;5892;43.412;24.612;2024-02-26T07:46:24;37.40;;;21.10;;
11671;SDS011;5892;43.412;24.612;2024-02-26T07:48:49;36.17;;;20.10;;
11671;SDS011;5892;43.412;24.612;2024-02-26T07:51:15;38.97;;;19.10;;
11671;SDS011;5892;43.412;24.612;2024-02-26T07:53:40;41.65;;;20.88;;
11671;SDS011;5892;43.412;24.612;2024-02-26T07:56:06;43.83;;;22.13;;
11671;SDS011;5892;43.412;24.612;2024-02-26T07:58:32;43.35;;;20.35;;
11671;SDS011;5892;43.412;24.612;2024-02-26T08:00:58;46.47;;;22.30;;
11671;SDS011;5892;43.412;24.612;2024-02-26T08:03:24;42.88;;;21.75;;
11671;SDS011;5892;43.412;24.612;2024-02-26T08:05:50;52.05;;;23.55;;
11671;SDS011;5892;43.412;24.612;2024-02-26T08:08:16;40.22;;;24.20;;
11671;SDS011;5892;43.412;24.612;2024-02-26T08:10:42;44.55;;;22.40;;
11671;SDS011;5892;43.412;24.612;2024-02-26T08:13:07;41.92;;;23.80;;
11671;SDS011;5892;43.412;24.612;2024-02-26T08:15:33;42.13;;;22.83;;
11671;SDS011;5892;43.412;24.612;2024-02-26T08:18:00;33.78;;;20.38;;
11671;SDS011;5892;43.412;24.612;2024-02-26T08:20:29;39.25;;;18.13;;
11671;SDS011;5892;43.412;24.612;2024-02-26T08:22:56;32.75;;;17.05;;
11671;SDS011;5892;43.412;24.612;2024-02-26T08:25:22;31.65;;;18.20;;
11671;SDS011;5892;43.412;24.612;2024-02-26T08:27:48;34.20;;;17.45;;
11671;SDS011;5892;43.412;24.612;2024-02-26T08:30:14;35.28;;;17.42;;
11671;SDS011;5892;43.412;24.612;2024-02-26T08:32:42;34.17;;;16.80;;
11671;SDS011;5892;43.412;24.612;2024-02-26T08:35:11;29.92;;;17.80;;
11671;SDS011;5892;43.412;24.612;2024-02-26T08:37:36;28.70;;;15.98;;
11671;SDS011;5892;43.412;24.612;2024-02-26T08:40:02;32.08;;;16.08;;
11671;SDS011;5892;43.412;24.612;2024-02-26T08:42:29;26.48;;;15.65;;
11671;SDS011;5892;43.412;24.612;2024-02-26T08:44:55;26.92;;;16.08;;
11671;SDS011;5892;43.412;24.612;2024-02-26T08:47:20;25.73;;;14.82;;
11671;SDS011;5892;43.412;24.612;2024-02-26T08:49:46;26.40;;;14.55;;
11671;SDS011;5892;43.412;24.612;2024-02-26T08:52:11;27.23;;;15.52;;
11671;SDS011;5892;43.412;24.612;2024-02-26T08:54:37;27.40;;;16.77;;
11671;SDS011;5892;43.412;24.612;2024-02-26T08:57:03;35.17;;;16.95;;
11671;SDS011;5892;43.412;24.612;2024-02-26T08:59:29;27.95;;;17.15;;
11671;SDS011;5892;43.412;24.612;2024-02-26T09:01:54;29.65;;;16.27;;
11671;SDS011;5892;43.412;24.612;2024-02-26T09:04:20;29.70;;;14.77;;
11671;SDS011;5892;43.412;24.612;2024-02-26T09:06:46;30.58;;;16.58;;
11671;SDS011;5892;43.412;24.612;2024-02-26T09:09:12;30.95;;;16.02;;
11671;SDS011;5892;43.412;24.612;2024-02-26T09:11:37;30.27;;;13.77;;
11671;SDS011;5892;43.412;24.612;2024-02-26T09:14:03;35.20;;;15.88;;
11671;SDS011;5892;43.412;24.612;2024-02-26T09:16:29;27.10;;;16.52;;
11671;SDS011;5892;43.412;24.612;2024-02-26T09:18:56;27.98;;;16.15;;
11671;SDS011;5892;43.412;24.612;2024-02-26T09:21:22;28.15;;;15.77;;
11671;SDS011;5892;43.412;24.612;2024-02-26T09:23:51;27.20;;;15.70;;
11671;SDS011;5892;43.412;24.612;2024-02-26T09:26:17;26.92;;;15.38;;
11671;SDS011;5892;43.412;24.612;2024-02-26T09:28:43;33.83;;;15.60;;
11671;SDS011;5892;43.412;24.612;2024-02-26T09:31:09;29.20;;;16.13;;
11671;SDS011;5892;43.412;24.612;2024-02-26T09:33:35;33.47;;;16.77;;
11671;SDS011;5892;43.412;24.612;2024-02-26T09:36:01;24.73;;;15.65;;
11671;SDS011;5892;43.412;24.612;2024-02-26T09:38:28;25.20;;;15.43;;
11671;SDS011;5892;43.412;24.612;2024-02-26T09:40:56;27.90;;;14.45;;
11671;SDS011;5892;43.412;24.612;2024-02-26T09:43:22;29.15;;;15.88;;
11671;SDS011;5892;43.412;24.612;2024-02-26T09:45:52;32.33;;;16.00;;
11671;SDS011;5892;43.412;24.612;2024-02-26T09:48:18;31.42;;;17.45;;
11671;SDS011;5892;43.412;24.612;2024-02-26T09:50:45;34.47;;;17.60;;
11671;SDS011;5892;43.412;24.612;2024-02-26T09:53:12;39.30;;;20.02;;
11671;SDS011;5892;43.412;24.612;2024-02-26T09:55:38;42.47;;;23.27;;
11671;SDS011;5892;43.412;24.612;2024-02-26T09:58:04;33.25;;;18.00;;
11671;SDS011;5892;43.412;24.612;2024-02-26T10:00:31;27.80;;;17.27;;
11671;SDS011;5892;43.412;24.612;2024-02-26T10:03:02;33.45;;;17.17;;
11671;SDS011;5892;43.412;24.612;2024-02-26T10:05:30;24.00;;;12.30;;
11671;SDS011;5892;43.412;24.612;2024-02-26T10:07:57;27.52;;;15.25;;
11671;SDS011;5892;43.412;24.612;2024-02-26T10:10:23;23.02;;;14.38;;
11671;SDS011;5892;43.412;24.612;2024-02-26T10:12:52;25.17;;;14.05;;
11671;SDS011;5892;43.412;24.612;2024-02-26T10:15:17;25.25;;;13.00;;
11671;SDS011;5892;43.412;24.612;2024-02-26T10:17:43;19.98;;;12.20;;
11671;SDS011;5892;43.412;24.612;2024-02-26T10:20:12;23.27;;;12.43;;
11671;SDS011;5892;43.412;24.612;2024-02-26T10:22:46;47.38;;;20.52;;
11671;SDS011;5892;43.412;24.612;2024-02-26T10:25:13;48.67;;;20.00;;
11671;SDS011;5892;43.412;24.612;2024-02-26T10:27:42;30.52;;;16.35;;
11671;SDS011;5892;43.412;24.612;2024-02-26T10:30:18;39.67;;;22.15;;
11671;SDS011;5892;43.412;24.612;2024-02-26T10:32:50;46.53;;;21.58;;
11671;SDS011;5892;43.412;24.612;2024-02-26T10:35:17;32.85;;;18.10;;
11671;SDS011;5892;43.412;24.612;2024-02-26T10:37:43;221.32;;;56.13;;
11671;SDS011;5892;43.412;24.612;2024-02-26T10:40:12;155.60;;;46.92;;
11671;SDS011;5892;43.412;24.612;2024-02-26T10:42:40;32.20;;;15.73;;
11671;SDS011;5892;43.412;24.612;2024-02-26T10:45:06;56.53;;;21.48;;
11671;SDS011;5892;43.412;24.612;2024-02-26T10:47:37;88.10;;;30.60;;
11671;SDS011;5892;43.412;24.612;2024-02-26T10:50:03;55.83;;;21.67;;
11671;SDS011;5892;43.412;24.612;2024-02-26T10:52:34;147.15;;;59.53;;
11671;SDS011;5892;43.412;24.612;2024-02-26T10:55:01;47.05;;;21.67;;
11671;SDS011;5892;43.412;24.612;2024-02-26T10:57:29;55.05;;;24.17;;
11671;SDS011;5892;43.412;24.612;2024-02-26T10:59:58;58.60;;;29.13;;
11671;SDS011;5892;43.412;24.612;2024-02-26T11:02:25;62.53;;;33.63;;
11671;SDS011;5892;43.412;24.612;2024-02-26T11:04:51;100.97;;;44.47;;
11671;SDS011;5892;43.412;24.612;2024-02-26T11:07:17;33.78;;;17.35;;
11671;SDS011;5892;43.412;24.612;2024-02-26T11:09:44;30.67;;;18.75;;
11671;SDS011;5892;43.412;24.612;2024-02-26T11:12:16;30.98;;;15.63;;
11671;SDS011;5892;43.412;24.612;2024-02-26T11:14:43;24.08;;;14.85;;
11671;SDS011;5892;43.412;24.612;2024-02-26T11:17:11;20.15;;;14.20;;
11671;SDS011;5892;43.412;24.612;2024-02-26T11:19:38;22.77;;;14.05;;
11671;SDS011;5892;43.412;24.612;2024-02-26T11:22:06;22.80;;;13.20;;
11671;SDS011;5892;43.412;24.612;2024-02-26T11:24:32;20.40;;;12.32;;
11671;SDS011;5892;43.412;24.612;2024-02-26T11:26:58;21.35;;;13.30;;
11671;SDS011;5892;43.412;24.612;2024-02-26T11:29:29;33.90;;;16.63;;
11671;SDS011;5892;43.412;24.612;2024-02-26T11:32:00;36.55;;;19.33;;
11671;SDS011;5892;43.412;24.612;2024-02-26T11:34:26;32.88;;;16.90;;
11671;SDS011;5892;43.412;24.612;2024-02-26T11:36:52;31.05;;;16.80;;
11671;SDS011;5892;43.412;24.612;2024-02-26T11:39:18;22.77;;;13.95;;
11671;SDS011;5892;43.412;24.612;2024-02-26T11:41:44;19.58;;;12.85;;
11671;SDS011;5892;43.412;24.612;2024-02-26T11:44:10;25.92;;;13.45;;
11671;SDS011;5892;43.412;24.612;2024-02-26T11:46:39;24.00;;;13.18;;
11671;SDS011;5892;43.412;24.612;2024-02-26T11:51:51;22.10;;;13.40;;
11671;SDS011;5892;43.412;24.612;2024-02-26T11:57:04;25.52;;;14.32;;
11671;SDS011;5892;43.412;24.612;2024-02-26T11:59:44;21.27;;;12.82;;
11671;SDS011;5892;43.412;24.612;2024-02-26T12:02:10;16.73;;;11.38;;
11671;SDS011;5892;43.412;24.612;2024-02-26T12:04:37;20.30;;;12.60;;
11671;SDS011;5892;43.412;24.612;2024-02-26T12:07:03;25.17;;;11.93;;
11671;SDS011;5892;43.412;24.612;2024-02-26T12:09:40;22.45;;;12.25;;
11671;SDS011;5892;43.412;24.612;2024-02-26T12:12:07;22.63;;;12.13;;
11671;SDS011;5892;43.412;24.612;2024-02-26T12:14:37;18.70;;;10.50;;
11671;SDS011;5892;43.412;24.612;2024-02-26T12:17:19;42.10;;;18.02;;
11671;SDS011;5892;43.412;24.612;2024-02-26T12:19:46;28.63;;;14.45;;
11671;SDS011;5892;43.412;24.612;2024-02-26T12:22:16;26.58;;;13.10;;
11671;SDS011;5892;43.412;24.612;2024-02-26T12:24:42;33.70;;;15.55;;
11671;SDS011;5892;43.412;24.612;2024-02-26T12:27:10;22.45;;;11.48;;
11671;SDS011;5892;43.412;24.612;2024-02-26T12:29:35;21.15;;;11.77;;
11671;SDS011;5892;43.412;24.612;2024-02-26T12:32:01;20.73;;;11.30;;
11671;SDS011;5892;43.412;24.612;2024-02-26T12:34:28;17.50;;;10.50;;
11671;SDS011;5892;43.412;24.612;2024-02-26T12:36:53;17.30;;;9.75;;
11671;SDS011;5892;43.412;24.612;2024-02-26T12:39:19;15.32;;;9.82;;
11671;SDS011;5892;43.412;24.612;2024-02-26T12:41:46;20.63;;;11.18;;
11671;SDS011;5892;43.412;24.612;2024-02-26T12:44:17;19.70;;;10.75;;
11671;SDS011;5892;43.412;24.612;2024-02-26T12:46:43;18.75;;;10.13;;
11671;SDS011;5892;43.412;24.612;2024-02-26T12:49:09;18.45;;;10.13;;
11671;SDS011;5892;43.412;24.612;2024-02-26T12:51:39;17.13;;;10.45;;
11671;SDS011;5892;43.412;24.612;2024-02-26T12:54:06;18.60;;;9.60;;
11671;SDS011;5892;43.412;24.612;2024-02-26T12:56:32;13.82;;;8.63;;
11671;SDS011;5892;43.412;24.612;2024-02-26T12:58:58;15.32;;;8.50;;
11671;SDS011;5892;43.412;24.612;2024-02-26T13:01:24;15.20;;;9.27;;
11671;SDS011;5892;43.412;24.612;2024-02-26T13:03:51;18.48;;;7.88;;
11671;SDS011;5892;43.412;24.612;2024-02-26T13:06:18;11.88;;;7.80;;
11671;SDS011;5892;43.412;24.612;2024-02-26T13:08:44;24.08;;;9.68;;
11671;SDS011;5892;43.412;24.612;2024-02-26T13:11:11;13.60;;;7.88;;
11671;SDS011;5892;43.412;24.612;2024-02-26T13:13:38;21.35;;;9.93;;
11671;SDS011;5892;43.412;24.612;2024-02-26T13:16:05;18.67;;;8.23;;
11671;SDS011;5892;43.412;24.612;2024-02-26T13:18:33;36.83;;;15.52;;
11671;SDS011;5892;43.412;24.612;2024-02-26T13:21:06;17.25;;;8.23;;
11671;SDS011;5892;43.412;24.612;2024-02-26T13:23:35;14.48;;;7.50;;
11671;SDS011;5892;43.412;24.612;2024-02-26T13:26:01;9.68;;;5.57;;
11671;SDS011;5892;43.412;24.612;2024-02-26T13:28:26;9.27;;;4.95;;
11671;SDS011;5892;43.412;24.612;2024-02-26T13:30:55;7.30;;;4.70;;
11671;SDS011;5892;43.412;24.612;2024-02-26T13:33:22;9.50;;;6.03;;
11671;SDS011;5892;43.412;24.612;2024-02-26T13:35:50;10.50;;;6.13;;
11671;SDS011;5892;43.412;24.612;2024-02-26T13:38:16;12.98;;;6.60;;
11671;SDS011;5892;43.412;24.612;2024-02-26T13:40:43;5.20;;;3.55;;
11671;SDS011;5892;43.412;24.612;2024-02-26T13:43:09;7.28;;;3.67;;
11671;SDS011;5892;43.412;24.612;2024-02-26T13:45:35;6.68;;;3.60;;
11671;SDS011;5892;43.412;24.612;2024-02-26T13:48:02;7.53;;;3.88;;
11671;SDS011;5892;43.412;24.612;2024-02-26T13:50:29;6.43;;;4.05;;
11671;SDS011;5892;43.412;24.612;2024-02-26T13:52:56;7.22;;;3.63;;
11671;SDS011;5892;43.412;24.612;2024-02-26T13:55:22;8.80;;;4.47;;
11671;SDS011;5892;43.412;24.612;2024-02-26T13:57:51;6.85;;;3.33;;
11671;SDS011;5892;43.412;24.612;2024-02-26T14:00:18;8.07;;;3.88;;
11671;SDS011;5892;43.412;24.612;2024-02-26T14:02:44;8.52;;;4.55;;
11671;SDS011;5892;43.412;24.612;2024-02-26T14:05:11;6.13;;;3.70;;
11671;SDS011;5892;43.412;24.612;2024-02-26T14:07:37;7.70;;;4.43;;
11671;SDS011;5892;43.412;24.612;2024-02-26T14:10:03;10.43;;;4.97;;
11671;SDS011;5892;43.412;24.612;2024-02-26T14:12:28;11.55;;;4.68;;
11671;SDS011;5892;43.412;24.612;2024-02-26T14:14:54;9.68;;;5.18;;
11671;SDS011;5892;43.412;24.612;2024-02-26T14:17:21;9.80;;;4.95;;
11671;SDS011;5892;43.412;24.612;2024-02-26T14:19:48;10.30;;;5.82;;
11671;SDS011;5892;43.412;24.612;2024-02-26T14:22:13;9.82;;;5.43;;
11671;SDS011;5892;43.412;24.612;2024-02-26T14:24:41;12.38;;;5.35;;
11671;SDS011;5892;43.412;24.612;2024-02-26T14:27:10;10.65;;;6.00;;